»·PEaware :: SKW5814 KRNO-KSFO

SKW5814 :: KRNO-KSFO

FLIGHT INFORMATION

Flight Status: Arrived
Operator:
SkyWest Airlines
More flights by this operator :: More flights under this callsign
Pilot: Alfredo R. (12181)
Aircraft: CANADAIR CL-600 CRJ-200
(CRJ2)
More flights by this aircraft type
Origin: KRNO Reno/Tahoe Intl
United States
Destination: KSFO San Francisco Intl
United States
More flights between these airports :: More routes between these airports
Route: +PVINE3 CRDDZ LEGGS BDEGA3
File this flight plan on PilotEdge
Remarks:
Altitude:
(Current/Filed)
280ft
Speed:
(Current/Filed)
425kts
Departed: 28-Jun-20 06:10 PM
Arrived: 28-Jun-20 07:04 PM
Distance/Time
Traveled:
167nm/0:53
Distance/Time
To Go:
Arrived

Flight Plot

Page will automatically refresh every two minutes.

Flight plan parsing failed; only flown route is shown


Map Options




Map Legend


Flown Route
Filed Route
Departure Airport
Arrival Airport
Navaid (VOR, NDB)
Fix

Horizontal Profiles

Position Reports

Time Latitude Longitude Heading Altitude Ground
Speed
28-Jun-20 16:58 39.507413 -119.773512 196 4412ft 0kts
28-Jun-20 16:59 39.507413 -119.773512 196 4412ft 0kts
28-Jun-20 17:00 39.507413 -119.773512 196 4412ft 0kts
28-Jun-20 17:01 39.507413 -119.773512 196 4412ft 0kts
28-Jun-20 17:02 39.507413 -119.773512 196 4412ft 0kts
28-Jun-20 17:03 39.507413 -119.773512 196 4412ft 0kts
28-Jun-20 17:04 39.507413 -119.773512 196 4412ft 0kts
28-Jun-20 17:05 39.507413 -119.773512 196 4412ft 0kts
28-Jun-20 17:06 39.507413 -119.773512 196 4412ft 0kts
28-Jun-20 17:07 39.507413 -119.773512 196 4412ft 0kts
28-Jun-20 17:08 39.507413 -119.773512 196 4412ft 0kts
28-Jun-20 17:09 39.507413 -119.773512 196 4412ft 0kts
28-Jun-20 17:10 39.507413 -119.773512 196 4412ft 0kts
28-Jun-20 17:11 39.507413 -119.773512 196 4412ft 0kts
28-Jun-20 17:12 39.507413 -119.773512 196 4412ft 0kts
28-Jun-20 17:13 39.507413 -119.773512 196 4412ft 0kts
28-Jun-20 17:14 39.507413 -119.773512 196 4412ft 0kts
28-Jun-20 17:15 39.507413 -119.773512 196 4412ft 0kts
28-Jun-20 17:16 39.507413 -119.773512 196 4412ft 0kts
28-Jun-20 17:17 39.507413 -119.773512 196 4412ft 0kts
28-Jun-20 17:18 39.507413 -119.773512 196 4412ft 0kts
28-Jun-20 17:19 39.507413 -119.773512 196 4412ft 0kts
28-Jun-20 17:20 39.507413 -119.773512 196 4412ft 0kts
28-Jun-20 17:21 39.507413 -119.773512 196 4412ft 0kts
28-Jun-20 17:22 39.507598 -119.773488 196 4412ft 2kts
28-Jun-20 17:23 39.508018 -119.773699 87 4412ft 2kts
28-Jun-20 17:24 39.508013 -119.772740 90 4411ft 7kts
28-Jun-20 17:25 39.508007 -119.772124 90 4411ft 0kts
28-Jun-20 17:26 39.508007 -119.772124 90 4411ft 0kts
28-Jun-20 17:27 39.508007 -119.772124 90 4411ft 0kts
28-Jun-20 17:28 39.508007 -119.772124 90 4411ft 0kts
28-Jun-20 17:29 39.508007 -119.772124 90 4411ft 0kts
28-Jun-20 17:30 39.508007 -119.772124 90 4411ft 0kts
28-Jun-20 17:31 39.508007 -119.772124 90 4411ft 0kts
28-Jun-20 17:32 39.508007 -119.772124 90 4411ft 0kts
28-Jun-20 17:33 39.508007 -119.772124 90 4411ft 0kts
28-Jun-20 17:34 39.508007 -119.772124 90 4411ft 0kts
28-Jun-20 17:35 39.508007 -119.772124 90 4411ft 0kts
28-Jun-20 17:36 39.508007 -119.772124 90 4411ft 0kts
28-Jun-20 17:37 39.508007 -119.772124 90 4411ft 0kts
28-Jun-20 17:45 39.507413 -119.773512 196 4412ft 0kts
28-Jun-20 17:46 39.507413 -119.773512 196 4412ft 0kts
28-Jun-20 17:47 39.507413 -119.773512 196 4412ft 0kts
28-Jun-20 17:48 39.507413 -119.773512 196 4412ft 0kts
28-Jun-20 17:49 39.507413 -119.773512 196 4412ft 0kts
28-Jun-20 17:50 39.507413 -119.773512 196 4412ft 0kts
28-Jun-20 17:51 39.507409 -119.773514 196 4412ft 0kts
28-Jun-20 17:52 39.507809 -119.773405 193 4412ft 2kts
28-Jun-20 17:53 39.508016 -119.773821 89 4412ft 1kts
28-Jun-20 17:54 39.508007 -119.772138 90 4411ft 1kts
28-Jun-20 17:55 39.508007 -119.772124 90 4411ft 0kts
28-Jun-20 17:56 39.508007 -119.772124 90 4411ft 0kts
28-Jun-20 17:57 39.508007 -119.772124 90 4411ft 0kts
28-Jun-20 17:58 39.508007 -119.772049 89 4411ft 1kts
28-Jun-20 17:59 39.507249 -119.771498 179 4411ft 6kts
28-Jun-20 18:00 39.504683 -119.771498 179 4408ft 13kts
28-Jun-20 18:01 39.500794 -119.771507 180 4408ft 13kts
28-Jun-20 18:02 39.497187 -119.771526 179 4408ft 12kts
28-Jun-20 18:03 39.493575 -119.771537 180 4408ft 13kts
28-Jun-20 18:04 39.489978 -119.771535 179 4408ft 11kts
28-Jun-20 18:05 39.489243 -119.768291 90 4408ft 7kts
28-Jun-20 18:06 39.489243 -119.767983 89 4408ft 0kts
28-Jun-20 18:07 39.489243 -119.767923 89 4408ft 1kts
28-Jun-20 18:08 39.490687 -119.766814 359 4405ft 37kts
28-Jun-20 18:09 39.528787 -119.766299 356 5230ft 199kts
28-Jun-20 18:10 39.591688 -119.771828 320 7588ft 256kts
28-Jun-20 18:11 39.629294 -119.847771 296 9617ft 241kts
28-Jun-20 18:12 39.662642 -119.930628 290 11615ft 276kts
28-Jun-20 18:13 39.648581 -120.025551 253 14134ft 296kts
28-Jun-20 18:14 39.621257 -120.123068 252 17330ft 293kts
28-Jun-20 18:15 39.593810 -120.218140 255 20301ft 286kts
28-Jun-20 18:16 39.566156 -120.313862 259 22505ft 284kts
28-Jun-20 18:17 39.538583 -120.409398 259 24302ft 284kts
28-Jun-20 18:18 39.510178 -120.507114 259 25752ft 292kts
28-Jun-20 18:19 39.481159 -120.606473 259 27086ft 299kts
28-Jun-20 18:20 39.450973 -120.709504 258 27937ft 320kts
28-Jun-20 18:21 39.416395 -120.826908 257 27933ft 363kts
28-Jun-20 18:22 39.380264 -120.949053 257 27932ft 371kts
28-Jun-20 18:23 39.342626 -121.075563 256 27913ft 376kts
28-Jun-20 18:24 39.275648 -121.189437 241 27711ft 395kts
28-Jun-20 18:25 39.205714 -121.296996 239 27700ft 390kts
28-Jun-20 18:26 39.135831 -121.403725 240 27703ft 387kts
28-Jun-20 18:27 39.064970 -121.511745 239 27713ft 404kts
28-Jun-20 18:28 38.992610 -121.621567 239 27711ft 398kts
28-Jun-20 18:29 38.920665 -121.730441 239 27728ft 401kts
28-Jun-20 18:30 38.847388 -121.840945 238 27714ft 408kts
28-Jun-20 18:31 38.772872 -121.952921 238 27714ft 415kts
28-Jun-20 18:32 38.697897 -122.065184 238 27716ft 407kts
28-Jun-20 18:33 38.624249 -122.175053 237 26420ft 404kts
28-Jun-20 18:35 38.550948 -122.284154 237 24777ft 411kts
28-Jun-20 18:36 38.474686 -122.397100 237 23265ft 429kts
28-Jun-20 18:37 38.396275 -122.513479 237 21825ft 428kts
28-Jun-20 18:38 38.321159 -122.624777 239 20462ft 395kts
28-Jun-20 18:39 38.252340 -122.725851 234 19160ft 375kts
28-Jun-20 18:40 38.145353 -122.744539 171 17907ft 419kts
28-Jun-20 18:41 38.033756 -122.712048 171 16138ft 397kts
28-Jun-20 18:42 37.927828 -122.681421 172 14439ft 378kts
28-Jun-20 18:43 37.840490 -122.610662 142 12954ft 373kts
28-Jun-20 18:44 37.761856 -122.527508 140 11455ft 361kts
28-Jun-20 18:45 37.705839 -122.438509 112 11000ft 321kts
28-Jun-20 18:46 37.668230 -122.336828 113 9569ft 314kts
28-Jun-20 18:47 37.634001 -122.244297 113 8005ft 276kts
28-Jun-20 18:48 37.605662 -122.160926 113 6677ft 238kts
28-Jun-20 18:49 37.582972 -122.092231 113 6542ft 238kts
28-Jun-20 18:50 37.555400 -122.010962 113 5601ft 251kts
28-Jun-20 18:51 37.529186 -121.932152 113 4218ft 240kts
28-Jun-20 18:51 37.519411 -121.871540 123 4015ft 189kts
28-Jun-20 18:53 37.481612 -121.897928 272 4047ft 184kts
28-Jun-20 18:54 37.481231 -121.960645 273 4047ft 173kts
28-Jun-20 18:54 37.481132 -122.010894 273 4068ft 171kts
28-Jun-20 18:56 37.492541 -122.077959 295 4066ft 170kts
28-Jun-20 18:56 37.511883 -122.122070 295 4065ft 170kts
28-Jun-20 18:57 37.533848 -122.173543 293 3280ft 153kts
28-Jun-20 18:59 37.557111 -122.228686 293 2347ft 154kts
28-Jun-20 18:59 37.573417 -122.267306 292 1661ft 135kts
28-Jun-20 19:00 37.589883 -122.306500 293 966ft 123kts
28-Jun-20 19:01 37.606053 -122.344929 293 305ft 126kts
28-Jun-20 19:02 37.619479 -122.376905 299 22ft 42kts
28-Jun-20 19:03 37.621472 -122.383080 214 28ft 0kts
28-Jun-20 19:04 37.620509 -122.383693 256 28ft 9kts
28-Jun-20 19:05 37.619380 -122.385947 202 28ft 6kts
28-Jun-20 19:06 37.618985 -122.385960 172 28ft 0kts
28-Jun-20 19:07 37.618985 -122.385960 172 28ft 0kts

Navigation Log

Ident Type
Flight plan parsing failed, navigation log unavailable